Kezdőlap
METAR-TAF:

METAR-TAF

Repülőterek :

Marshall County Airport

Lacon, Illinois, Amerikai Egyesült Államok

földrajzi szélesség: 41-01-09N, földrajzi hosszúság: 089-23-11W, magasság: 173 m

Jelenlegi meteorológiai megfigyelések

A jelentés 28 perccel ezelõtt készült, 07:55 UTC
Szélcsend
Hőmérséklet 23°C
Páratartalom 94%
Légköri nyomás 1014 hPa
Látótávolság: 16.1 km
Szórványos felhőzet 4300 lábon

METAR: KC75 100755Z AUTO 00000KT 10SM SCT043 23/22 A2994 RMK AO2 T02310221

Idő: 03:23 (08:23 UTC)


TAF: hiányzik

Meteorológiai megfigyelések és előrejelzések több, mint 4000 repülőtéren (METAR és TAF jelentéseket).

A térképen piros és sárga pontok jelzik az elérhető meteorológiai állomásokat.

Mozgassa az egeret a pont fölött, hogy megjelenjen az állomás neve.

Azután kattintson az időjárási megfigyelések és előrejelzések megtekintéséhez.

A térkép megváltoztatása: kattintson a fekete keresztel jelölt zöld gombra ráközelítéshez, a vonallal jelölt zöld gombra távolításhoz, vagy a zöld nyilakra a szomszédos térképek eléréséhez.


METAR-TAF: